< Typhoon 195217 1952 Season Typhoon 195219 >
Typhoon 195218 (VAE)
General InformationTrack Information on Google Maps || Disaster Info.ResourceGoogle EarthGE AnimationAtom FeedGeoJSON
Detalied Best Track (Time Zone = UTC)
Year Month Day Hour Lat. Long. Pressure (hPa) Wind (kt) Class Image Chart
1952 10 15 06 15.0 128.0 1006 0 2 -- Chart
1952 10 15 12 15.0 127.0 1006 0 2 -- Chart
1952 10 15 18 15.0 126.0 1006 0 2 -- Chart
1952 10 16 00 14.5 125.0 1006 0 2 -- Chart
1952 10 16 06 14.0 124.0 1004 0 2 -- Chart
1952 10 16 12 13.2 122.6 1004 0 2 -- Chart
1952 10 16 18 13.1 122.0 1004 0 2 -- Chart
1952 10 17 00 13.1 121.3 1004 0 2 -- Chart
1952 10 17 06 13.2 120.5 1004 0 2 -- Chart
1952 10 17 12 13.2 119.5 1004 0 2 -- Chart
1952 10 17 18 13.2 118.4 1002 0 2 -- Chart
1952 10 18 00 13.2 117.3 1000 0 2 -- Chart
1952 10 18 06 13.2 116.2 1000 0 2 -- Chart
1952 10 18 12 13.2 115.5 1000 0 2 -- Chart
1952 10 18 18 13.0 114.5 1000 0 2 -- Chart
1952 10 19 00 12.5 113.5 1000 0 2 -- Chart
1952 10 19 06 12.3 112.7 996 0 2 -- Chart
1952 10 19 12 12.0 111.8 984 0 9 -- Chart
1952 10 19 18 12.0 111.0 980 0 9 -- Chart
1952 10 20 00 11.7 110.3 975 0 9 -- Chart
1952 10 20 06 11.4 109.7 975 0 9 -- Chart
1952 10 20 12 11.3 108.8 975 0 9 -- Chart
1952 10 20 18 11.7 107.0 980 0 9 -- Chart
1952 10 21 00 12.5 105.2 985 0 9 -- Chart
1952 10 21 06 12.9 104.4 994 0 9 -- Chart
1952 10 21 12 13.0 103.8 994 0 9 -- Chart
1952 10 21 18 13.2 102.7 994 0 9 -- Chart
1952 10 22 00 13.5 101.3 994 0 9 -- Chart
1952 10 22 06 13.5 99.5 996 0 9 -- Chart
1952 10 22 12 13.7 98.0 998 0 2 -- Chart
Japan Meteorological Agency Best Track Data | Correction Date : 1990-10-17
< Typhoon 195217 1952 Season Typhoon 195219 >

Help